createdAt,value
2019-02-10T00:00:32.766Z,6.94
2019-02-10T00:01:32.751Z,6.99
2019-02-10T00:02:32.749Z,7.02
2019-02-10T00:03:32.727Z,6.98
2019-02-10T00:04:32.714Z,6.88
2019-02-10T00:05:32.700Z,6.88
2019-02-10T00:06:32.690Z,6.8
2019-02-10T00:07:32.680Z,6.8
2019-02-10T00:08:32.661Z,6.84
2019-02-10T00:09:32.949Z,6.77
2019-02-10T00:10:32.640Z,6.76
2019-02-10T00:11:32.623Z,6.66
2019-02-10T00:12:32.609Z,6.69
2019-02-10T00:13:32.650Z,6.67
2019-02-10T00:14:32.583Z,6.73
2019-02-10T00:15:32.575Z,6.7
2019-02-10T00:16:32.557Z,6.69
2019-02-10T00:17:32.542Z,6.71
2019-02-10T00:18:32.541Z,6.66
2019-02-10T00:19:32.543Z,6.66
2019-02-10T00:20:32.264Z,6.62
2019-02-10T00:21:32.493Z,6.58
2019-02-10T00:22:32.480Z,6.64
2019-02-10T00:23:32.469Z,6.67
2019-02-10T00:24:32.452Z,6.58
2019-02-10T00:25:32.440Z,6.71
2019-02-10T00:26:32.432Z,6.67
2019-02-10T00:27:32.416Z,6.69
2019-02-10T00:28:32.402Z,6.74
2019-02-10T00:29:32.390Z,6.79
2019-02-10T00:30:32.375Z,6.8
2019-02-10T00:31:32.362Z,6.88
2019-02-10T00:32:32.354Z,6.89
2019-02-10T00:33:32.339Z,6.8
2019-02-10T00:34:32.320Z,6.98
2019-02-10T00:35:32.310Z,6.95
2019-02-10T00:36:38.122Z,6.97
2019-02-10T00:37:32.283Z,6.95
2019-02-10T00:38:32.271Z,6.95
2019-02-10T00:39:32.261Z,6.95
2019-02-10T00:40:32.248Z,6.87
2019-02-10T00:41:32.235Z,6.89
2019-02-10T00:42:32.224Z,6.84
2019-02-10T00:43:32.207Z,6.84
2019-02-10T00:44:32.194Z,6.88
2019-02-10T00:45:32.178Z,6.79
2019-02-10T00:46:32.167Z,6.84
2019-02-10T00:47:32.153Z,6.69
2019-02-10T00:48:32.139Z,6.74
2019-02-10T00:49:32.125Z,6.7
2019-02-10T00:50:32.137Z,6.71
2019-02-10T00:51:32.100Z,6.71
2019-02-10T00:52:32.088Z,6.66
2019-02-10T00:53:32.077Z,6.66
2019-02-10T00:54:32.061Z,6.64
2019-02-10T00:55:32.048Z,6.62
2019-02-10T00:56:32.036Z,6.56
2019-02-10T00:57:32.021Z,6.52
2019-02-10T00:58:32.007Z,6.48
2019-02-10T00:59:31.997Z,6.54
2019-02-10T01:00:31.985Z,6.48
2019-02-10T01:01:31.976Z,6.41
2019-02-10T01:02:31.955Z,6.52
2019-02-10T01:03:31.942Z,6.36
2019-02-10T01:04:31.931Z,6.31
2019-02-10T01:05:31.916Z,6.36
2019-02-10T01:06:31.905Z,6.36
2019-02-10T01:07:31.890Z,6.37
2019-02-10T01:08:31.879Z,6.36
2019-02-10T01:09:31.867Z,6.38
2019-02-10T01:10:31.853Z,6.33
2019-02-10T01:11:31.838Z,6.28
2019-02-10T01:12:46.495Z,6.22
2019-02-10T01:13:31.851Z,6.18
2019-02-10T01:14:31.805Z,6.22
2019-02-10T01:15:31.787Z,6.14
2019-02-10T01:16:31.776Z,6.21
2019-02-10T01:17:31.758Z,6.17
2019-02-10T01:18:31.745Z,6.22
2019-02-10T01:19:31.739Z,6.19
2019-02-10T01:20:31.721Z,6.15
2019-02-10T01:21:31.707Z,6.14
2019-02-10T01:22:31.690Z,6.14
2019-02-10T01:23:31.675Z,6.09
2019-02-10T01:24:31.663Z,6.11
2019-02-10T01:25:31.649Z,6.09
2019-02-10T01:26:31.634Z,6.04
2019-02-10T01:27:31.623Z,5.97
2019-02-10T01:28:31.611Z,6.06
2019-02-10T01:29:31.596Z,6
2019-02-10T01:30:31.581Z,5.97
2019-02-10T01:31:31.575Z,5.99
2019-02-10T01:32:31.553Z,6.01
2019-02-10T01:33:31.540Z,5.99
2019-02-10T01:34:31.528Z,5.86
2019-02-10T01:35:31.522Z,5.9
2019-02-10T01:36:31.499Z,5.93
2019-02-10T01:37:31.486Z,5.86
2019-02-10T01:38:31.475Z,5.86
2019-02-10T01:39:31.467Z,5.91
2019-02-10T01:40:31.446Z,5.86
2019-02-10T01:41:31.437Z,5.83
2019-02-10T01:42:31.418Z,5.9
2019-02-10T01:43:31.659Z,5.89
2019-02-10T01:44:31.391Z,5.81
2019-02-10T01:45:31.377Z,5.82
2019-02-10T01:46:31.372Z,5.83
2019-02-10T01:47:31.349Z,5.91
2019-02-10T01:48:32.257Z,5.76
2019-02-10T01:49:31.321Z,5.83
2019-02-10T01:50:31.310Z,5.86
2019-02-10T01:51:31.296Z,5.76
2019-02-10T01:52:31.283Z,5.79
2019-02-10T01:53:31.265Z,5.72
2019-02-10T01:54:31.255Z,5.68
2019-02-10T01:55:32.856Z,5.72
2019-02-10T01:56:31.228Z,5.64
2019-02-10T01:57:31.212Z,5.61
2019-02-10T01:58:31.212Z,5.56
2019-02-10T01:59:31.184Z,5.54
2019-02-10T02:00:31.169Z,5.58
2019-02-10T02:01:31.163Z,5.54
2019-02-10T02:02:31.146Z,5.53
2019-02-10T02:03:31.130Z,5.56
2019-02-10T02:04:31.115Z,5.64
2019-02-10T02:05:31.100Z,5.57
2019-02-10T02:06:31.092Z,5.58
2019-02-10T02:07:31.072Z,5.64
2019-02-10T02:08:31.061Z,5.58
2019-02-10T02:09:31.050Z,5.56
2019-02-10T02:10:31.033Z,5.63
2019-02-10T02:11:31.017Z,5.57
2019-02-10T02:12:31.005Z,5.64
2019-02-10T02:13:30.993Z,5.56
2019-02-10T02:14:30.977Z,5.58
2019-02-10T02:15:30.965Z,5.54
2019-02-10T02:16:30.950Z,5.54
2019-02-10T02:17:30.939Z,5.54
2019-02-10T02:18:30.923Z,5.49
2019-02-10T02:19:30.910Z,5.56
2019-02-10T02:20:30.892Z,5.54
2019-02-10T02:21:30.880Z,5.48
2019-02-10T02:22:30.918Z,5.43
2019-02-10T02:23:30.851Z,5.45
2019-02-10T02:24:30.843Z,5.46
2019-02-10T02:25:30.835Z,5.56
2019-02-10T02:26:30.811Z,5.56
2019-02-10T02:27:30.795Z,5.54
2019-02-10T02:28:30.783Z,5.56
2019-02-10T02:29:30.772Z,5.49
2019-02-10T02:30:30.852Z,5.42
2019-02-10T02:31:30.738Z,5.54
2019-02-10T02:32:30.733Z,5.53
2019-02-10T02:33:30.712Z,5.53
2019-02-10T02:34:30.700Z,5.49
2019-02-10T02:35:30.692Z,5.49
2019-02-10T02:36:30.672Z,5.53
2019-02-10T02:37:30.678Z,5.43
2019-02-10T02:38:30.684Z,5.6
2019-02-10T02:39:30.638Z,5.58
2019-02-10T02:40:30.622Z,5.64
2019-02-10T02:41:30.608Z,5.57
2019-02-10T02:42:30.599Z,5.54
2019-02-10T02:43:30.580Z,5.71
2019-02-10T02:44:30.559Z,5.74
2019-02-10T02:45:30.554Z,5.75
2019-02-10T02:46:30.529Z,5.78
2019-02-10T02:47:30.518Z,5.82
2019-02-10T02:48:30.500Z,5.89
2019-02-10T02:49:30.485Z,5.83
2019-02-10T02:50:30.473Z,5.85
2019-02-10T02:51:30.462Z,5.81
2019-02-10T02:52:30.451Z,5.83
2019-02-10T02:53:30.444Z,5.89
2019-02-10T02:54:30.419Z,5.82
2019-02-10T02:55:30.402Z,5.9
2019-02-10T02:56:30.409Z,5.96
2019-02-10T02:57:30.375Z,5.97
2019-02-10T02:58:30.362Z,5.99
2019-02-10T02:59:30.415Z,6.04
2019-02-10T03:00:30.343Z,6
2019-02-10T03:01:30.321Z,6.03
2019-02-10T03:02:30.307Z,6.04
2019-02-10T03:03:30.292Z,6
2019-02-10T03:04:30.278Z,5.96
2019-02-10T03:05:30.270Z,5.94
2019-02-10T03:06:30.251Z,5.96
2019-02-10T03:07:30.242Z,5.96
2019-02-10T03:08:30.227Z,5.96
2019-02-10T03:09:30.217Z,5.9
2019-02-10T03:10:30.206Z,5.91
2019-02-10T03:11:30.182Z,5.93
2019-02-10T03:12:30.173Z,5.97
2019-02-10T03:13:30.156Z,5.9
2019-02-10T03:14:30.145Z,5.86
2019-02-10T03:15:30.128Z,5.9
2019-02-10T03:16:30.118Z,5.86
2019-02-10T03:17:30.099Z,5.9
2019-02-10T03:18:30.093Z,5.89
2019-02-10T03:19:30.081Z,5.81
2019-02-10T03:20:30.062Z,5.9
2019-02-10T03:21:30.060Z,5.83
2019-02-10T03:22:30.035Z,5.85
2019-02-10T03:23:30.018Z,5.85
2019-02-10T03:24:30.005Z,5.85
2019-02-10T03:25:29.991Z,5.79
2019-02-10T03:26:29.976Z,5.81
2019-02-10T03:27:29.965Z,5.76
2019-02-10T03:28:29.953Z,5.79
2019-02-10T03:29:29.936Z,5.72
2019-02-10T03:30:29.941Z,5.74
2019-02-10T03:31:29.926Z,5.72
2019-02-10T03:32:29.934Z,5.76
2019-02-10T03:33:29.919Z,5.75
2019-02-10T03:34:29.875Z,5.68
2019-02-10T03:35:29.852Z,5.64
2019-02-10T03:36:29.842Z,5.64
2019-02-10T03:37:32.148Z,5.61
2019-02-10T03:38:29.810Z,5.53
2019-02-10T03:39:29.794Z,5.57
2019-02-10T03:40:29.784Z,5.57
2019-02-10T03:41:29.772Z,5.57
2019-02-10T03:42:29.796Z,5.54
2019-02-10T03:43:29.741Z,5.64
2019-02-10T03:44:29.486Z,5.63
2019-02-10T03:45:29.719Z,5.58
2019-02-10T03:46:29.709Z,5.61
2019-02-10T03:47:44.359Z,5.53
2019-02-10T03:48:29.670Z,5.58
2019-02-10T03:49:29.658Z,5.64
2019-02-10T03:50:29.669Z,5.58
2019-02-10T03:51:29.631Z,5.56
2019-02-10T03:52:29.637Z,5.54
2019-02-10T03:53:29.612Z,5.58
2019-02-10T03:54:29.596Z,5.6
2019-02-10T03:55:29.600Z,5.61
2019-02-10T03:56:29.566Z,5.57
2019-02-10T03:57:29.559Z,5.56
2019-02-10T03:58:29.547Z,5.61
2019-02-10T03:59:29.518Z,5.57
2019-02-10T04:00:29.509Z,5.53
2019-02-10T04:01:29.489Z,5.64
2019-02-10T04:02:29.474Z,5.56
2019-02-10T04:03:29.463Z,5.6
2019-02-10T04:04:29.466Z,5.49
2019-02-10T04:05:29.439Z,5.58
2019-02-10T04:06:29.420Z,5.51
2019-02-10T04:07:38.173Z,5.45
2019-02-10T04:08:29.403Z,5.54
2019-02-10T04:09:29.373Z,5.48
2019-02-10T04:10:29.359Z,5.6
2019-02-10T04:11:29.352Z,5.56
2019-02-10T04:12:29.340Z,5.49
2019-02-10T04:13:29.320Z,5.49
2019-02-10T04:14:29.314Z,5.51
2019-02-10T04:15:29.296Z,5.49
2019-02-10T04:16:29.280Z,5.39
2019-02-10T04:17:43.931Z,5.35
2019-02-10T04:18:29.249Z,5.43
2019-02-10T04:19:29.245Z,5.38
2019-02-10T04:20:29.218Z,5.39
2019-02-10T04:21:29.205Z,5.39
2019-02-10T04:22:29.209Z,5.31
2019-02-10T04:23:29.180Z,5.33
2019-02-10T04:24:29.163Z,5.35
2019-02-10T04:25:29.150Z,5.3
2019-02-10T04:26:29.133Z,5.24
2019-02-10T04:27:29.126Z,5.28
2019-02-10T04:28:29.109Z,5.27
2019-02-10T04:29:29.099Z,5.21
2019-02-10T04:30:29.103Z,5.25
2019-02-10T04:31:28.826Z,5.2
2019-02-10T04:32:29.049Z,5.18
2019-02-10T04:33:29.042Z,5.3
2019-02-10T04:34:29.022Z,5.2
2019-02-10T04:35:29.015Z,5.17
2019-02-10T04:36:28.991Z,5.17
2019-02-10T04:37:28.976Z,5.2
2019-02-10T04:38:29.007Z,5.12
2019-02-10T04:39:28.959Z,5.12
2019-02-10T04:40:28.942Z,5.15
2019-02-10T04:41:28.983Z,5.12
2019-02-10T04:42:28.905Z,5.07
2019-02-10T04:43:28.899Z,5.07
2019-02-10T04:44:28.884Z,5.03
2019-02-10T04:45:28.873Z,5.1
2019-02-10T04:46:28.867Z,5.13
2019-02-10T04:47:28.850Z,5.15
2019-02-10T04:48:28.828Z,5.1
2019-02-10T04:49:28.815Z,5.12
2019-02-10T04:50:28.800Z,5.15
2019-02-10T04:51:28.791Z,5.13
2019-02-10T04:52:28.784Z,5.2
2019-02-10T04:53:28.748Z,5.13
2019-02-10T04:54:28.753Z,5.06
2019-02-10T04:55:28.722Z,5.09
2019-02-10T04:56:28.706Z,5.13
2019-02-10T04:57:28.700Z,5.12
2019-02-10T04:58:28.685Z,5.13
2019-02-10T04:59:28.664Z,5.13
2019-02-10T05:00:28.649Z,5.1
2019-02-10T05:01:28.654Z,5.15
2019-02-10T05:02:28.629Z,5.12
2019-02-10T05:03:28.615Z,5.15
2019-02-10T05:04:28.598Z,5.09
2019-02-10T05:05:28.579Z,5.15
2019-02-10T05:06:28.585Z,5.12
2019-02-10T05:07:28.562Z,5.13
2019-02-10T05:08:28.533Z,5.12
2019-02-10T05:09:28.528Z,5.13
2019-02-10T05:10:28.582Z,5.2
2019-02-10T05:11:28.489Z,5.1
2019-02-10T05:12:28.490Z,5.15
2019-02-10T05:13:28.463Z,5.06
2019-02-10T05:14:28.453Z,5.15
2019-02-10T05:15:28.435Z,5.12
2019-02-10T05:16:28.481Z,5.2
2019-02-10T05:17:28.165Z,5.1
2019-02-10T05:18:28.394Z,5.12
2019-02-10T05:19:28.383Z,5.21
2019-02-10T05:20:28.379Z,5.17
2019-02-10T05:21:28.352Z,5.15
2019-02-10T05:22:28.350Z,5.12
2019-02-10T05:23:28.317Z,5.17
2019-02-10T05:24:28.322Z,5.21
2019-02-10T05:25:28.293Z,5.2
2019-02-10T05:26:28.278Z,5.22
2019-02-10T05:27:28.264Z,5.22
2019-02-10T05:28:28.247Z,5.18
2019-02-10T05:29:28.245Z,5.31
2019-02-10T05:30:28.249Z,5.2
2019-02-10T05:31:28.219Z,5.31
2019-02-10T05:32:28.201Z,5.28
2019-02-10T05:33:28.217Z,5.33
2019-02-10T05:34:28.175Z,5.35
2019-02-10T05:35:28.151Z,5.39
2019-02-10T05:36:28.144Z,5.39
2019-02-10T05:37:28.123Z,5.38
2019-02-10T05:38:28.113Z,5.42
2019-02-10T05:39:28.102Z,5.42
2019-02-10T05:40:28.093Z,5.42
2019-02-10T05:41:28.071Z,5.56
2019-02-10T05:42:28.062Z,5.53
2019-02-10T05:43:28.048Z,5.61
2019-02-10T05:44:28.025Z,5.57
2019-02-10T05:45:28.015Z,5.58
2019-02-10T05:46:28.004Z,5.6
2019-02-10T05:47:27.990Z,5.53
2019-02-10T05:48:27.966Z,5.54
2019-02-10T05:49:27.952Z,5.67
2019-02-10T05:50:27.938Z,5.65
2019-02-10T05:51:27.929Z,5.71
2019-02-10T05:52:27.909Z,5.75
2019-02-10T05:53:27.896Z,5.78
2019-02-10T05:54:27.883Z,5.76
2019-02-10T05:55:27.877Z,5.83
2019-02-10T05:56:27.862Z,5.76
2019-02-10T05:57:27.847Z,5.78
2019-02-10T05:58:27.835Z,5.82
2019-02-10T05:59:27.832Z,5.9
2019-02-10T06:00:27.571Z,5.93
2019-02-10T06:01:27.781Z,5.89
2019-02-10T06:02:27.794Z,5.85
2019-02-10T06:03:27.761Z,5.86
2019-02-10T06:04:27.819Z,5.97
2019-02-10T06:05:27.816Z,5.97
2019-02-10T06:06:27.716Z,6.04
2019-02-10T06:07:27.704Z,5.99
2019-02-10T06:08:27.690Z,6.04
2019-02-10T06:09:27.672Z,6.08
2019-02-10T06:10:27.656Z,6.04
2019-02-10T06:11:27.661Z,6.08
2019-02-10T06:12:27.638Z,6.09
2019-02-10T06:13:27.615Z,6.18
2019-02-10T06:14:27.608Z,6.17
2019-02-10T06:15:27.348Z,6.15
2019-02-10T06:16:27.573Z,6.18
2019-02-10T06:17:27.569Z,6.17
2019-02-10T06:18:27.592Z,6.25
2019-02-10T06:19:27.588Z,6.19
2019-02-10T06:20:27.522Z,6.27
2019-02-10T06:21:27.507Z,6.28
2019-02-10T06:22:27.491Z,6.3
2019-02-10T06:23:27.478Z,6.28
2019-02-10T06:24:27.469Z,6.33
2019-02-10T06:25:27.488Z,6.33
2019-02-10T06:26:27.437Z,6.3
2019-02-10T06:27:27.424Z,6.28
2019-02-10T06:28:27.414Z,6.31
2019-02-10T06:29:27.398Z,6.3
2019-02-10T06:30:27.430Z,6.27
2019-02-10T06:31:27.374Z,6.33
2019-02-10T06:32:27.361Z,6.3
2019-02-10T06:33:27.344Z,6.34
2019-02-10T06:34:27.339Z,6.3
2019-02-10T06:35:27.335Z,6.31
2019-02-10T06:36:27.323Z,6.28
2019-02-10T06:37:27.302Z,6.36
2019-02-10T06:38:27.715Z,6.34
2019-02-10T06:39:27.313Z,6.33
2019-02-10T06:40:27.258Z,6.36
2019-02-10T06:41:27.237Z,6.31
2019-02-10T06:42:27.228Z,6.4
2019-02-10T06:43:27.212Z,6.4
2019-02-10T06:44:27.197Z,6.46
2019-02-10T06:45:27.184Z,6.48
2019-02-10T06:46:27.178Z,6.48
2019-02-10T06:47:27.158Z,6.52
2019-02-10T06:48:27.147Z,6.46
2019-02-10T06:49:27.137Z,6.46
2019-02-10T06:50:27.123Z,6.54
2019-02-10T06:51:27.106Z,6.59
2019-02-10T06:52:27.089Z,6.56
2019-02-10T06:53:27.115Z,6.59
2019-02-10T06:54:27.069Z,6.67
2019-02-10T06:55:27.058Z,6.67
2019-02-10T06:56:27.037Z,6.62
2019-02-10T06:57:27.022Z,6.7
2019-02-10T06:58:27.007Z,6.71
2019-02-10T06:59:26.996Z,6.71
2019-02-10T07:00:27.034Z,6.71
2019-02-10T07:01:26.974Z,6.73
2019-02-10T07:02:26.959Z,6.79
2019-02-10T07:03:26.961Z,6.81
2019-02-10T07:04:26.932Z,6.85
2019-02-10T07:05:26.918Z,6.88
2019-02-10T07:06:26.904Z,6.84
2019-02-10T07:07:26.891Z,6.91
2019-02-10T07:08:35.095Z,6.97
2019-02-10T07:09:26.866Z,6.95
2019-02-10T07:10:26.854Z,7.02
2019-02-10T07:11:26.840Z,6.98
2019-02-10T07:12:26.834Z,6.97
2019-02-10T07:13:26.815Z,7.2
2019-02-10T07:14:26.808Z,7.1
2019-02-10T07:15:26.790Z,7.13
2019-02-10T07:16:26.774Z,7.15
2019-02-10T07:17:26.767Z,7.21
2019-02-10T07:18:26.752Z,7.15
2019-02-10T07:19:26.737Z,7.21
2019-02-10T07:20:26.726Z,7.2
2019-02-10T07:21:26.714Z,7.25
2019-02-10T07:22:26.702Z,7.25
2019-02-10T07:23:26.685Z,7.34
2019-02-10T07:24:26.677Z,7.28
2019-02-10T07:25:26.665Z,7.27
2019-02-10T07:26:26.645Z,7.3
2019-02-10T07:27:26.636Z,7.39
2019-02-10T07:28:26.627Z,7.4
2019-02-10T07:29:26.611Z,7.42
2019-02-10T07:30:26.601Z,7.55
2019-02-10T07:31:26.884Z,7.45
2019-02-10T07:32:26.574Z,7.45
2019-02-10T07:33:26.562Z,7.49
2019-02-10T07:34:26.568Z,7.55
2019-02-10T07:35:26.298Z,7.6
2019-02-10T07:36:26.551Z,7.69
2019-02-10T07:37:26.522Z,7.6
2019-02-10T07:38:26.497Z,7.71
2019-02-10T07:39:26.490Z,7.67
2019-02-10T07:40:26.486Z,7.74
2019-02-10T07:41:26.462Z,7.82
2019-02-10T07:42:26.449Z,7.71
2019-02-10T07:43:26.441Z,7.71
2019-02-10T07:44:26.424Z,7.86
2019-02-10T07:45:26.417Z,7.75
2019-02-10T07:46:26.399Z,7.72
2019-02-10T07:47:26.391Z,7.74
2019-02-10T07:48:26.379Z,7.82
2019-02-10T07:49:26.367Z,7.77
2019-02-10T07:50:26.351Z,7.89
2019-02-10T07:51:26.340Z,7.82
2019-02-10T07:52:26.328Z,7.86
2019-02-10T07:53:26.316Z,7.87
2019-02-10T07:54:26.311Z,7.83
2019-02-10T07:55:26.292Z,7.87
2019-02-10T07:56:26.325Z,7.86
2019-02-10T07:57:26.273Z,7.87
2019-02-10T07:58:26.257Z,7.85
2019-02-10T07:59:26.246Z,7.9
2019-02-10T08:00:26.238Z,7.92
2019-02-10T08:01:26.220Z,7.9
2019-02-10T08:02:26.243Z,7.93
2019-02-10T08:03:26.193Z,7.89
2019-02-10T08:04:26.180Z,7.87
2019-02-10T08:05:26.169Z,7.93
2019-02-10T08:06:26.157Z,7.98
2019-02-10T08:07:26.153Z,8.02
2019-02-10T08:08:26.689Z,8.07
2019-02-10T08:09:26.128Z,8.02
2019-02-10T08:10:25.863Z,8.05
2019-02-10T08:11:26.101Z,8.11
2019-02-10T08:12:26.083Z,8.18
2019-02-10T08:13:26.072Z,8.23
2019-02-10T08:14:26.062Z,8.29
2019-02-10T08:15:26.050Z,8.36
2019-02-10T08:16:26.036Z,8.34
2019-02-10T08:17:26.032Z,8.37
2019-02-10T08:18:26.019Z,8.33
2019-02-10T08:19:26.001Z,8.3
2019-02-10T08:20:25.990Z,8.34
2019-02-10T08:21:26.019Z,8.37
2019-02-10T08:22:25.969Z,8.45
2019-02-10T08:23:25.955Z,8.36
2019-02-10T08:24:25.943Z,8.37
2019-02-10T08:25:25.933Z,8.33
2019-02-10T08:26:25.921Z,8.37
2019-02-10T08:27:25.945Z,8.33
2019-02-10T08:28:25.909Z,8.43
2019-02-10T08:29:25.883Z,8.4
2019-02-10T08:30:25.875Z,8.44
2019-02-10T08:31:25.862Z,8.45
2019-02-10T08:32:25.854Z,8.5
2019-02-10T08:33:25.850Z,8.45
2019-02-10T08:34:25.832Z,8.41
2019-02-10T08:35:27.366Z,8.44
2019-02-10T08:36:25.803Z,8.48
2019-02-10T08:37:25.795Z,8.45
2019-02-10T08:38:25.780Z,8.44
2019-02-10T08:39:25.770Z,8.45
2019-02-10T08:40:25.758Z,8.56
2019-02-10T08:41:25.747Z,8.43
2019-02-10T08:42:25.736Z,8.45
2019-02-10T08:43:25.725Z,8.53
2019-02-10T08:44:25.748Z,8.45
2019-02-10T08:45:25.700Z,8.44
2019-02-10T08:46:25.688Z,8.52
2019-02-10T08:47:33.365Z,8.48
2019-02-10T08:48:25.670Z,8.52
2019-02-10T08:49:25.765Z,8.59
2019-02-10T08:50:25.644Z,8.59
2019-02-10T08:51:25.646Z,8.62
2019-02-10T08:52:25.623Z,8.61
2019-02-10T08:53:25.610Z,8.56
2019-02-10T08:54:25.599Z,8.61
2019-02-10T08:55:25.622Z,8.52
2019-02-10T08:56:25.577Z,8.48
2019-02-10T08:57:25.576Z,8.41
2019-02-10T08:58:25.550Z,8.52
2019-02-10T08:59:25.540Z,8.38
2019-02-10T09:00:25.532Z,8.37
2019-02-10T09:01:25.525Z,8.33
2019-02-10T09:02:25.553Z,8.18
2019-02-10T09:03:25.498Z,8.19
2019-02-10T09:04:25.520Z,8.11
2019-02-10T09:05:25.472Z,8.15
2019-02-10T09:06:25.465Z,8.08
2019-02-10T09:07:25.447Z,7.98
2019-02-10T09:08:25.443Z,8.05
2019-02-10T09:09:25.426Z,8.02
2019-02-10T09:10:25.413Z,8
2019-02-10T09:11:25.419Z,7.97
2019-02-10T09:12:25.398Z,7.89
2019-02-10T09:13:25.375Z,7.79
2019-02-10T09:14:25.374Z,7.79
2019-02-10T09:15:25.351Z,7.75
2019-02-10T09:16:25.350Z,7.8
2019-02-10T09:17:25.336Z,7.68
2019-02-10T09:18:25.329Z,7.6
2019-02-10T09:19:25.379Z,7.6
2019-02-10T09:20:25.297Z,7.55
2019-02-10T09:21:25.286Z,7.6
2019-02-10T09:22:25.269Z,7.5
2019-02-10T09:23:25.262Z,7.6
2019-02-10T09:24:25.248Z,7.45
2019-02-10T09:25:25.291Z,7.37
2019-02-10T09:26:25.229Z,7.4
2019-02-10T09:27:25.212Z,7.39
2019-02-10T09:28:25.200Z,7.35
2019-02-10T09:29:25.188Z,7.42
2019-02-10T09:30:25.177Z,7.3
2019-02-10T09:31:24.929Z,7.32
2019-02-10T09:32:25.150Z,7.27
2019-02-10T09:33:25.143Z,7.28
2019-02-10T09:34:24.882Z,7.3
2019-02-10T09:35:25.111Z,7.31
2019-02-10T09:36:25.102Z,7.35
2019-02-10T09:37:25.092Z,7.28
2019-02-10T09:38:25.076Z,7.25
2019-02-10T09:39:25.066Z,7.34
2019-02-10T09:40:25.056Z,7.3
2019-02-10T09:41:25.041Z,7.3
2019-02-10T09:42:25.027Z,7.31
2019-02-10T09:43:25.010Z,7.31
2019-02-10T09:44:25.005Z,7.28
2019-02-10T09:45:24.992Z,7.32
2019-02-10T09:46:25.041Z,7.32
2019-02-10T09:47:24.964Z,7.32
2019-02-10T09:48:24.966Z,7.34
2019-02-10T09:49:24.696Z,7.27
2019-02-10T09:50:24.684Z,7.28
2019-02-10T09:51:24.920Z,7.28
2019-02-10T09:52:24.909Z,7.25
2019-02-10T09:53:24.889Z,7.28
2019-02-10T09:54:24.880Z,7.34
2019-02-10T09:55:24.863Z,7.42
2019-02-10T09:56:24.853Z,7.49
2019-02-10T09:57:24.847Z,7.43
2019-02-10T09:58:24.833Z,7.34
2019-02-10T09:59:24.819Z,7.49
2019-02-10T10:00:24.807Z,7.48
2019-02-10T10:01:24.796Z,7.53
2019-02-10T10:02:24.778Z,7.46
2019-02-10T10:03:24.820Z,7.52
2019-02-10T10:04:24.755Z,7.52
2019-02-10T10:05:24.743Z,7.63
2019-02-10T10:06:25.106Z,7.57
2019-02-10T10:07:24.714Z,7.58
2019-02-10T10:08:24.709Z,7.58
2019-02-10T10:09:24.706Z,7.58
2019-02-10T10:10:24.684Z,7.58
2019-02-10T10:11:24.669Z,7.55
2019-02-10T10:12:24.417Z,7.55
2019-02-10T10:13:24.644Z,7.69
2019-02-10T10:14:30.613Z,7.69
2019-02-10T10:15:24.623Z,7.69
2019-02-10T10:16:24.609Z,7.74
2019-02-10T10:17:24.595Z,7.79
2019-02-10T10:18:24.583Z,7.82
2019-02-10T10:19:24.571Z,7.79
2019-02-10T10:20:24.562Z,7.77
2019-02-10T10:21:24.554Z,7.83
2019-02-10T10:22:24.535Z,7.85
2019-02-10T10:23:24.527Z,7.86
2019-02-10T10:24:24.511Z,7.9
2019-02-10T10:25:24.507Z,7.87
2019-02-10T10:26:24.493Z,7.97
2019-02-10T10:27:24.479Z,8.04
2019-02-10T10:28:24.473Z,8.07
2019-02-10T10:29:24.452Z,8.04
2019-02-10T10:30:24.440Z,8.02
2019-02-10T10:31:24.431Z,8.02
2019-02-10T10:32:24.418Z,8.12
2019-02-10T10:33:24.410Z,8.12
2019-02-10T10:34:24.400Z,8.15
2019-02-10T10:35:24.383Z,8.18
2019-02-10T10:36:24.379Z,8.15
2019-02-10T10:37:24.359Z,8.19
2019-02-10T10:38:24.348Z,8.16
2019-02-10T10:39:31.955Z,8.12
2019-02-10T10:40:24.324Z,8.12
2019-02-10T10:41:24.361Z,8.18
2019-02-10T10:42:24.300Z,8.12
2019-02-10T10:43:24.288Z,8.12
2019-02-10T10:44:24.281Z,8.02
2019-02-10T10:45:24.274Z,8.02
2019-02-10T10:46:24.257Z,8
2019-02-10T10:47:24.253Z,8.04
2019-02-10T10:48:24.244Z,8.07
2019-02-10T10:49:24.219Z,8
2019-02-10T10:50:24.205Z,8.05
2019-02-10T10:51:24.196Z,8.02
2019-02-10T10:52:24.194Z,8.05
2019-02-10T10:53:24.171Z,8.01
2019-02-10T10:54:24.165Z,8.02
2019-02-10T10:55:24.150Z,8.1
2019-02-10T10:56:23.909Z,8.04
2019-02-10T10:57:25.186Z,8.07
2019-02-10T10:58:24.117Z,8.04
2019-02-10T10:59:24.101Z,8.01
2019-02-10T11:00:24.094Z,8.01
2019-02-10T11:01:30.065Z,8.02
2019-02-10T11:02:24.066Z,8.04
2019-02-10T11:03:24.053Z,7.98
2019-02-10T11:04:23.806Z,8.04
2019-02-10T11:05:24.028Z,8.07
2019-02-10T11:06:24.023Z,8.01
2019-02-10T11:07:24.006Z,8.01
2019-02-10T11:08:23.995Z,8.01
2019-02-10T11:09:23.984Z,8.1
2019-02-10T11:10:23.970Z,8.04
2019-02-10T11:11:23.963Z,8.01
2019-02-10T11:12:23.950Z,8.04
2019-02-10T11:13:23.939Z,8.02
2019-02-10T11:14:23.933Z,8.02
2019-02-10T11:15:23.918Z,8.01
2019-02-10T11:16:23.911Z,8.16
2019-02-10T11:17:23.889Z,8.15
2019-02-10T11:18:23.880Z,8.12
2019-02-10T11:19:23.871Z,8.16
2019-02-10T11:20:23.857Z,8.16
2019-02-10T11:21:23.845Z,8.12
2019-02-10T11:22:23.831Z,8.07
2019-02-10T11:23:23.824Z,8.16
2019-02-10T11:24:31.120Z,8.15
2019-02-10T11:25:23.792Z,8.12
2019-02-10T11:26:23.785Z,8.15
2019-02-10T11:27:23.771Z,8.15
2019-02-10T11:28:23.762Z,8.04
2019-02-10T11:29:23.747Z,8.02
2019-02-10T11:30:23.795Z,8.07
2019-02-10T11:31:23.724Z,8.07
2019-02-10T11:32:23.712Z,8.04
2019-02-10T11:33:23.707Z,8.04
2019-02-10T11:34:23.691Z,8.04
2019-02-10T11:35:23.678Z,8.11
2019-02-10T11:36:23.684Z,8.15
2019-02-10T11:37:31.422Z,8.12
2019-02-10T11:38:23.643Z,8.12
2019-02-10T11:39:23.627Z,8.16
2019-02-10T11:40:23.616Z,8.05
2019-02-10T11:41:23.605Z,8.12
2019-02-10T11:42:23.591Z,8.18
2019-02-10T11:43:23.583Z,8.04
2019-02-10T11:44:23.571Z,8.19
2019-02-10T11:45:23.557Z,8.16
2019-02-10T11:46:23.548Z,8.11
2019-02-10T11:47:23.536Z,8.19
2019-02-10T11:48:23.520Z,8.16
2019-02-10T11:49:23.515Z,8.11
2019-02-10T11:50:23.501Z,8.18
2019-02-10T11:51:23.487Z,8.15
2019-02-10T11:52:23.479Z,8.2
2019-02-10T11:53:23.464Z,8.33
2019-02-10T11:54:23.455Z,8.33
2019-02-10T11:55:23.499Z,8.28
2019-02-10T11:56:23.431Z,8.36
2019-02-10T11:57:23.416Z,8.28
2019-02-10T11:58:23.405Z,8.3
2019-02-10T11:59:23.391Z,8.3
2019-02-10T12:00:23.381Z,8.29
2019-02-10T12:01:23.373Z,8.34
2019-02-10T12:02:23.356Z,8.37
2019-02-10T12:03:23.344Z,8.33
2019-02-10T12:04:23.337Z,8.3
2019-02-10T12:05:23.326Z,8.38
2019-02-10T12:06:23.324Z,8.34
2019-02-10T12:07:23.308Z,8.36
2019-02-10T12:08:23.287Z,8.34
2019-02-10T12:09:23.282Z,8.44
2019-02-10T12:10:23.315Z,8.45
2019-02-10T12:11:23.255Z,8.48
2019-02-10T12:12:23.239Z,8.41
2019-02-10T12:13:23.244Z,8.41
2019-02-10T12:14:23.216Z,8.48
2019-02-10T12:15:23.209Z,8.52
2019-02-10T12:16:23.193Z,8.52
2019-02-10T12:17:23.190Z,8.53
2019-02-10T12:18:23.175Z,8.56
2019-02-10T12:19:22.918Z,8.56
2019-02-10T12:20:23.146Z,8.63
2019-02-10T12:21:23.140Z,8.61
2019-02-10T12:22:23.127Z,8.61
2019-02-10T12:23:23.123Z,8.66
2019-02-10T12:24:23.100Z,8.76
2019-02-10T12:25:22.850Z,8.63
2019-02-10T12:26:23.084Z,8.65
2019-02-10T12:27:23.075Z,8.66
2019-02-10T12:28:23.060Z,8.7
2019-02-10T12:29:23.051Z,8.74
2019-02-10T12:30:23.033Z,8.71
2019-02-10T12:31:23.029Z,8.71
2019-02-10T12:32:23.007Z,8.8
2019-02-10T12:33:23.002Z,8.83
2019-02-10T12:34:22.993Z,8.77
2019-02-10T12:35:24.088Z,8.81
2019-02-10T12:36:22.964Z,8.87
2019-02-10T12:37:22.954Z,8.77
2019-02-10T12:38:22.942Z,8.8
2019-02-10T12:39:22.931Z,8.84
2019-02-10T12:40:22.925Z,8.94
2019-02-10T12:41:22.905Z,8.89
2019-02-10T12:42:22.894Z,9.04
2019-02-10T12:43:22.892Z,9.08
2019-02-10T12:44:22.882Z,9.01
2019-02-10T12:45:22.872Z,9.05
2019-02-10T12:46:22.860Z,9.08
2019-02-10T12:47:22.845Z,9.08
2019-02-10T12:48:22.828Z,9.13
2019-02-10T12:49:22.817Z,9.15
2019-02-10T12:50:22.810Z,9.13
2019-02-10T12:51:22.801Z,9.15
2019-02-10T12:52:22.782Z,9.15
2019-02-10T12:53:22.844Z,9.15
2019-02-10T12:54:22.776Z,9.11
2019-02-10T12:55:22.751Z,9.13
2019-02-10T12:56:22.743Z,9.17
2019-02-10T12:57:22.733Z,9.2
2019-02-10T12:58:22.720Z,9.2
2019-02-10T12:59:22.753Z,9.2
2019-02-10T13:00:22.717Z,9.24
2019-02-10T13:01:22.683Z,9.24
2019-02-10T13:02:22.675Z,9.33
2019-02-10T13:03:22.667Z,9.28
2019-02-10T13:04:22.657Z,9.36
2019-02-10T13:05:22.643Z,9.36
2019-02-10T13:06:22.636Z,9.33
2019-02-10T13:07:22.619Z,9.35
2019-02-10T13:08:22.611Z,9.38
2019-02-10T13:09:22.599Z,9.35
2019-02-10T13:10:23.185Z,9.38
2019-02-10T13:11:22.577Z,9.28
2019-02-10T13:12:22.565Z,9.39
2019-02-10T13:13:24.259Z,9.31
2019-02-10T13:14:22.544Z,9.36
2019-02-10T13:15:22.292Z,9.39
2019-02-10T13:16:22.521Z,9.4
2019-02-10T13:17:22.521Z,9.46
2019-02-10T13:18:22.503Z,9.46
2019-02-10T13:19:22.494Z,9.43
2019-02-10T13:20:22.480Z,9.48
2019-02-10T13:21:22.465Z,9.5